Estación Meteorológica Peña el Pijo (Robertgarden) [ 05/26/19 18:58:05 CEST ]

Fecha Hora Presion(HPa) Temp (°C) Humedad % Rocio (°C) Viento ( m/s) Direccion Lluvia 1Hora(mm) Lluvia 24H(mm) LLuvia Total(mm)
2018-Dec-24 01:01:55 1018.900 2.4 74 -1.8         160.58
2018-Dec-24 02:06:09 1018.400 2.7 72 -1.8         160.58
2018-Dec-24 03:02:01 1018.400 2.4 71 -2.3         160.58
2018-Dec-24 04:01:50 1018.300 1.9 71 -2.8         160.58
2018-Dec-24 05:01:38 1017.900 1.6 72 -2.9         160.58
2018-Dec-24 06:01:44 1017.900 1.7 71 -3.0         160.58
2018-Dec-24 07:01:44 1018.000 1.8 70 -3.1         160.58
2018-Dec-24 08:01:58 1017.800 0.3 71 -4.3         160.58
2018-Dec-24 09:01:44 1018.100 0.7 72 -3.8         160.58
2018-Dec-24 10:01:53 1018.200 5.3 66 -0.6         160.58
2018-Dec-24 11:01:49 1018.100 10.8 51 1.1         160.58
2018-Dec-24 12:01:40 1017.500 16.1 41 2.8         160.58
2018-Dec-24 13:01:41 1016.400 20.1 31 2.4         160.58
2018-Dec-24 14:01:53 1015.500 23.3 25 1.9         160.58
2018-Dec-24 15:01:51 1014.800 23.9 21 0.2         160.58
2018-Dec-24 16:01:50 1015.100 21.9 24 0.2         160.58
2018-Dec-24 17:01:32 1015.700 15.8 31 -1.4         160.58
2018-Dec-24 18:01:46 1016.100 11.9 40 -1.3         160.58
2018-Dec-24 19:01:33 1016.000 7.5 48 -2.8         160.58
2018-Dec-24 20:01:55 1016.400 4.9 55 -3.4         160.58
2018-Dec-24 21:01:41 1016.600 3.9 58 -3.7         160.58
2018-Dec-24 22:01:44 1016.900 3.3 60 -3.7         160.58
2018-Dec-24 23:01:54 1017.000 2.4 63 -3.9         160.58

Temperatura Máxima:23°    Temperatura Mínima:
Presión Máxima:1018.900 Hpa    Presión Mínima:1014.800 Hpa


Volver